Markham, Virginia
Current Conditions -  °F | °C
As of 8:35 AM on Friday 28 Nov 2014 (Local Time) from KFRR Reporting Station
Broken Clouds Broken Clouds  
Wind Chill: 25°   Ceiling: 4300
Heat Index: 32°   Visibility: 10mi
Dew Point: 19°   Wind: 8mph
Humidity: 60%   Direction: 300°WNW
Pressure: 30.28"   Gusts: 16mph
Location:  38.9°N, 78°W
Report Text: KFRR 281335Z AUTO 30007G14KT 10SM BKN043 00/M07 A3028 RMK AO1
Loading
Personal Weather Stations






























Interactive Weather Map New forecast layout! Learn more

10-Day Weather Forecast

Advertisements
Track Severe Weather on mobile